Time;durP1;ratioP1;P1;durP2;ratioP2;P2;SDS_P1;SDS_P2;PMS_P1;PMS_P2;Temp;Humidity;BMP_temperature;BMP_pressure;BME280_temperature;BME280_humidity;BME280_pressure;Samples;Min_cycle;Max_cycle;Signal;HPM_P1;HPM_P2
2023/04/24 00:00:21;;;;;;;57.90;2.73;;;;;;;;;;5074531;28;20478;-69
2023/04/24 00:02:48;;;;;;;58.90;2.73;;;;;;;;;;5074929;28;20457;-69
2023/04/24 00:05:17;;;;;;;57.47;2.50;;;;;;;;;;5074984;28;20998;-69
2023/04/24 00:07:44;;;;;;;58.07;2.93;;;;;;;;;;5074780;28;20932;-69
2023/04/24 00:10:12;;;;;;;57.80;2.90;;;;;;;;;;5074362;28;20467;-69
2023/04/24 00:12:40;;;;;;;57.90;3.10;;;;;;;;;;5074705;28;20451;-69
2023/04/24 00:15:08;;;;;;;57.50;2.80;;;;;;;;;;5074932;28;20447;-69
2023/04/24 00:17:35;;;;;;;58.33;3.20;;;;;;;;;;5074904;28;20443;-69
2023/04/24 00:20:04;;;;;;;58.10;2.53;;;;;;;;;;5074336;28;20497;-68
2023/04/24 00:22:31;;;;;;;57.57;2.70;;;;;;;;;;5074652;28;20451;-69
2023/04/24 00:24:59;;;;;;;57.93;2.83;;;;;;;;;;5074590;28;20469;-69
2023/04/24 00:27:26;;;;;;;59.47;2.77;;;;;;;;;;5074712;28;20647;-69
2023/04/24 00:29:54;;;;;;;59.30;2.73;;;;;;;;;;5074171;28;20985;-69
2023/04/24 00:32:21;;;;;;;57.53;2.90;;;;;;;;;;5074567;28;20443;-69
2023/04/24 00:34:48;;;;;;;58.20;2.77;;;;;;;;;;5074456;28;20558;-69
2023/04/24 00:37:15;;;;;;;58.97;3.13;;;;;;;;;;5074640;28;20444;-69
2023/04/24 00:39:43;;;;;;;58.57;2.90;;;;;;;;;;5073798;28;20467;-69
2023/04/24 00:42:10;;;;;;;57.53;2.70;;;;;;;;;;5074159;28;20447;-69
2023/04/24 00:44:37;;;;;;;59.43;3.10;;;;;;;;;;5074233;28;20455;-69
2023/04/24 00:47:06;;;;;;;58.17;3.13;;;;;;;;;;5074199;28;20486;-68
2023/04/24 00:49:33;;;;;;;58.10;3.10;;;;;;;;;;5073802;28;20839;-69
2023/04/24 00:52:00;;;;;;;58.07;2.80;;;;;;;;;;5074257;28;20454;-69
2023/04/24 00:54:27;;;;;;;58.60;2.90;;;;;;;;;;5073846;28;20475;-69
2023/04/24 00:56:55;;;;;;;58.07;2.63;;;;;;;;;;5073908;28;20448;-68
2023/04/24 00:59:22;;;;;;;58.50;2.90;;;;;;;;;;5073704;28;20467;-69
2023/04/24 01:01:49;;;;;;;59.60;2.80;;;;;;;;;;5073987;28;20455;-68
2023/04/24 01:04:18;;;;;;;57.70;2.70;;;;;;;;;;5073845;28;20823;-69
2023/04/24 01:06:45;;;;;;;58.27;2.70;;;;;;;;;;5072635;28;20483;-69
2023/04/24 01:09:14;;;;;;;60.07;3.00;;;;;;;;;;5073842;28;20474;-69
2023/04/24 01:11:42;;;;;;;58.27;2.70;;;;;;;;;;5073934;28;20452;-69
2023/04/24 01:14:09;;;;;;;57.80;2.90;;;;;;;;;;5073722;28;20500;-68
2023/04/24 01:16:38;;;;;;;57.30;2.63;;;;;;;;;;5073531;28;20554;-69
2023/04/24 01:19:05;;;;;;;58.50;3.10;;;;;;;;;;5073090;28;20533;-69
2023/04/24 01:21:36;;;;;;;57.70;2.77;;;;;;;;;;5073347;28;20936;-69
2023/04/24 01:24:05;;;;;;;57.87;2.90;;;;;;;;;;5073494;28;20944;-69
2023/04/24 01:26:32;;;;;;;58.87;2.90;;;;;;;;;;5071783;28;20509;-69
2023/04/24 01:28:59;;;;;;;57.97;2.80;;;;;;;;;;5072777;28;20471;-69
2023/04/24 01:31:27;;;;;;;57.83;2.50;;;;;;;;;;5073405;28;20455;-69
2023/04/24 01:33:55;;;;;;;59.90;3.03;;;;;;;;;;5073298;28;20462;-68
2023/04/24 01:36:23;;;;;;;57.60;2.87;;;;;;;;;;5073007;28;20455;-69
2023/04/24 01:38:50;;;;;;;57.70;2.83;;;;;;;;;;5072783;28;20467;-69
2023/04/24 01:41:18;;;;;;;58.00;3.10;;;;;;;;;;5073029;28;20932;-69
2023/04/24 01:43:45;;;;;;;57.93;2.97;;;;;;;;;;5072981;28;20450;-69
2023/04/24 01:46:13;;;;;;;57.60;2.70;;;;;;;;;;5073818;28;20489;-69
2023/04/24 01:48:40;;;;;;;58.17;2.70;;;;;;;;;;5072760;28;20448;-69
2023/04/24 01:51:07;;;;;;;59.30;2.93;;;;;;;;;;5073171;28;20449;-69
2023/04/24 01:53:34;;;;;;;57.70;3.00;;;;;;;;;;5073117;28;20461;-69
2023/04/24 01:56:02;;;;;;;57.40;2.50;;;;;;;;;;5072669;28;20448;-69
2023/04/24 01:58:31;;;;;;;57.97;3.33;;;;;;;;;;5072787;28;20451;-69
2023/04/24 02:00:58;;;;;;;57.57;2.80;;;;;;;;;;5072882;28;20952;-69
2023/04/24 02:03:26;;;;;;;57.60;2.60;;;;;;;;;;5072880;28;20542;-69
2023/04/24 02:05:53;;;;;;;58.27;3.00;;;;;;;;;;5072965;28;20851;-70
2023/04/24 02:08:20;;;;;;;57.83;2.90;;;;;;;;;;5073013;28;20455;-69
2023/04/24 02:10:47;;;;;;;57.97;3.00;;;;;;;;;;5072592;28;20823;-68
2023/04/24 02:13:14;;;;;;;59.00;3.30;;;;;;;;;;5072718;28;20443;-68
2023/04/24 02:15:43;;;;;;;58.20;2.90;;;;;;;;;;5072656;28;20451;-69
2023/04/24 02:18:11;;;;;;;57.80;2.80;;;;;;;;;;5072071;28;20446;-69
2023/04/24 02:20:38;;;;;;;59.90;3.07;;;;;;;;;;5072007;28;20911;-69
2023/04/24 02:23:05;;;;;;;57.37;2.33;;;;;;;;;;5072332;28;20467;-68
2023/04/24 02:25:32;;;;;;;57.80;3.00;;;;;;;;;;5072447;28;20933;-69
2023/04/24 02:27:59;;;;;;;58.60;3.00;;;;;;;;;;5072376;28;20443;-69
2023/04/24 02:30:26;;;;;;;57.37;2.50;;;;;;;;;;5072066;28;20479;-69
2023/04/24 02:32:55;;;;;;;58.63;2.50;;;;;;;;;;5072029;28;20447;-70
2023/04/24 02:35:22;;;;;;;58.40;2.73;;;;;;;;;;5072207;28;20538;-69
2023/04/24 02:37:49;;;;;;;57.27;2.80;;;;;;;;;;5072105;28;20478;-69
2023/04/24 02:40:16;;;;;;;57.40;2.63;;;;;;;;;;5071901;28;20466;-69
2023/04/24 02:42:43;;;;;;;60.43;2.80;;;;;;;;;;5072105;28;20447;-69
2023/04/24 02:45:11;;;;;;;58.90;3.00;;;;;;;;;;5072291;28;20447;-69
2023/04/24 02:47:38;;;;;;;58.93;2.83;;;;;;;;;;5072006;28;20479;-69
2023/04/24 02:50:07;;;;;;;57.80;2.80;;;;;;;;;;5071690;28;20471;-69
2023/04/24 02:52:34;;;;;;;57.27;2.57;;;;;;;;;;5071791;28;20943;-69
2023/04/24 02:55:01;;;;;;;57.57;2.67;;;;;;;;;;5072014;28;20447;-69
2023/04/24 02:57:29;;;;;;;58.47;2.93;;;;;;;;;;5071929;28;20479;-69
2023/04/24 02:59:56;;;;;;;59.03;2.73;;;;;;;;;;5071739;28;20726;-69
2023/04/24 03:02:23;;;;;;;57.77;2.47;;;;;;;;;;5072030;28;20447;-69
2023/04/24 03:04:50;;;;;;;60.30;2.80;;;;;;;;;;5072246;28;20447;-69
2023/04/24 03:07:20;;;;;;;57.73;3.13;;;;;;;;;;5071562;28;21019;-69
2023/04/24 03:09:47;;;;;;;57.90;2.70;;;;;;;;;;5071700;28;20874;-69
2023/04/24 03:12:16;;;;;;;58.57;2.93;;;;;;;;;;5072308;28;20455;-69
2023/04/24 03:14:43;;;;;;;57.90;3.00;;;;;;;;;;5071975;28;20457;-69
2023/04/24 03:17:11;;;;;;;57.97;2.97;;;;;;;;;;5071695;28;20455;-69
2023/04/24 03:19:38;;;;;;;58.10;3.20;;;;;;;;;;5071793;28;20489;-69
2023/04/24 03:22:05;;;;;;;58.73;3.00;;;;;;;;;;5071984;28;20823;-69
2023/04/24 03:24:34;;;;;;;58.70;3.33;;;;;;;;;;5072292;28;20855;-69
2023/04/24 03:27:01;;;;;;;59.90;3.93;;;;;;;;;;5071612;28;20482;-68
2023/04/24 03:29:28;;;;;;;58.47;3.10;;;;;;;;;;5073571;28;20467;-69
2023/04/24 03:31:55;;;;;;;58.20;2.53;;;;;;;;;;5075560;28;20454;-68
2023/04/24 03:34:22;;;;;;;57.80;2.87;;;;;;;;;;5075560;28;20454;-69
2023/04/24 03:36:49;;;;;;;58.20;3.20;;;;;;;;;;5075640;28;20443;-69
2023/04/24 03:39:16;;;;;;;58.00;3.17;;;;;;;;;;5074999;28;20513;-69
2023/04/24 03:41:45;;;;;;;59.70;3.00;;;;;;;;;;5075454;28;20454;-68
2023/04/24 03:44:12;;;;;;;58.50;2.97;;;;;;;;;;5075433;28;20822;-69
2023/04/24 03:46:39;;;;;;;58.97;3.00;;;;;;;;;;5075156;28;20490;-69
2023/04/24 03:49:06;;;;;;;59.70;2.80;;;;;;;;;;5074983;28;20486;-69
2023/04/24 03:51:33;;;;;;;57.40;2.80;;;;;;;;;;5075295;28;20477;-69
2023/04/24 03:54:00;;;;;;;57.97;3.10;;;;;;;;;;5075411;28;20447;-69
2023/04/24 03:56:27;;;;;;;59.00;3.17;;;;;;;;;;5075592;28;20924;-69
2023/04/24 03:58:56;;;;;;;57.60;2.80;;;;;;;;;;5074574;28;20467;-69
2023/04/24 04:01:24;;;;;;;59.63;3.10;;;;;;;;;;5075148;28;20458;-69
2023/04/24 04:03:51;;;;;;;60.10;3.20;;;;;;;;;;5075150;28;20455;-69
2023/04/24 04:06:19;;;;;;;57.77;2.83;;;;;;;;;;5074791;28;20485;-69
2023/04/24 04:08:46;;;;;;;58.10;3.23;;;;;;;;;;5074222;28;20843;-68
2023/04/24 04:11:13;;;;;;;58.27;2.70;;;;;;;;;;5074775;28;20453;-69
2023/04/24 04:13:40;;;;;;;57.80;2.70;;;;;;;;;;5074735;28;20455;-68
2023/04/24 04:16:10;;;;;;;59.57;3.40;;;;;;;;;;5074925;28;20451;-69
2023/04/24 04:18:37;;;;;;;57.80;3.00;;;;;;;;;;5074517;28;20447;-68
2023/04/24 04:21:04;;;;;;;58.67;2.90;;;;;;;;;;5074647;28;20451;-69
2023/04/24 04:23:31;;;;;;;57.73;2.60;;;;;;;;;;5074593;28;20517;-70
2023/04/24 04:25:59;;;;;;;58.00;2.90;;;;;;;;;;5074538;28;20815;-69
2023/04/24 04:28:26;;;;;;;59.90;2.90;;;;;;;;;;5074439;28;21025;-69
2023/04/24 04:30:53;;;;;;;62.03;3.10;;;;;;;;;;5074535;28;20800;-69
2023/04/24 04:33:22;;;;;;;58.77;2.93;;;;;;;;;;5074315;28;20948;-69
2023/04/24 04:35:49;;;;;;;58.10;2.63;;;;;;;;;;5074453;28;20454;-69
2023/04/24 04:38:16;;;;;;;58.57;2.90;;;;;;;;;;5074126;28;20479;-70
2023/04/24 04:40:43;;;;;;;59.87;3.20;;;;;;;;;;5073639;28;21002;-69
2023/04/24 04:43:10;;;;;;;58.57;3.10;;;;;;;;;;5074482;28;20819;-69
2023/04/24 04:45:38;;;;;;;58.20;3.50;;;;;;;;;;5074138;28;20443;-69
2023/04/24 04:48:07;;;;;;;58.87;3.23;;;;;;;;;;5073850;28;20490;-69
2023/04/24 04:50:36;;;;;;;59.33;3.07;;;;;;;;;;5073941;28;20477;-69
2023/04/24 04:53:03;;;;;;;60.23;4.30;;;;;;;;;;5073975;28;20831;-69
2023/04/24 04:55:30;;;;;;;58.57;3.40;;;;;;;;;;5074154;28;20457;-69
2023/04/24 04:57:57;;;;;;;58.33;3.27;;;;;;;;;;5074122;28;20501;-68
2023/04/24 05:00:25;;;;;;;58.37;2.83;;;;;;;;;;5073744;28;20474;-69
2023/04/24 05:02:52;;;;;;;58.57;2.93;;;;;;;;;;5074098;28;20451;-69
2023/04/24 05:05:19;;;;;;;58.37;3.60;;;;;;;;;;5073873;28;20455;-69
2023/04/24 05:07:48;;;;;;;57.97;3.20;;;;;;;;;;5074109;28;20900;-69
2023/04/24 05:10:15;;;;;;;59.27;3.37;;;;;;;;;;5073563;28;20467;-69
2023/04/24 05:12:42;;;;;;;58.53;3.30;;;;;;;;;;5073656;28;20952;-69
2023/04/24 05:15:09;;;;;;;58.27;3.10;;;;;;;;;;5073832;28;20453;-69
2023/04/24 05:17:36;;;;;;;58.20;3.27;;;;;;;;;;5073684;28;20810;-70
2023/04/24 05:20:05;;;;;;;58.03;2.97;;;;;;;;;;5073250;28;20471;-70
2023/04/24 05:22:32;;;;;;;58.10;2.80;;;;;;;;;;5073500;28;20482;-69
2023/04/24 05:25:00;;;;;;;58.70;3.10;;;;;;;;;;5073545;28;20808;-70
2023/04/24 05:27:27;;;;;;;59.07;2.87;;;;;;;;;;5073327;28;20491;-70
2023/04/24 05:29:55;;;;;;;59.10;3.13;;;;;;;;;;5073050;28;20467;-70
2023/04/24 05:32:22;;;;;;;57.77;3.20;;;;;;;;;;5073346;28;20482;-70
2023/04/24 05:34:49;;;;;;;58.83;3.43;;;;;;;;;;5073147;28;20963;-70
2023/04/24 05:37:16;;;;;;;60.30;3.10;;;;;;;;;;5073114;28;20451;-68
2023/04/24 05:39:43;;;;;;;57.80;3.27;;;;;;;;;;5072819;28;20474;-68
2023/04/24 05:42:12;;;;;;;58.37;3.07;;;;;;;;;;5073107;28;20447;-68
2023/04/24 05:44:39;;;;;;;58.13;3.20;;;;;;;;;;5073188;28;20452;-68
2023/04/24 05:47:06;;;;;;;58.73;3.40;;;;;;;;;;5073364;28;20483;-69
2023/04/24 05:49:33;;;;;;;58.27;3.20;;;;;;;;;;5072512;28;20470;-69
2023/04/24 05:52:00;;;;;;;58.37;3.20;;;;;;;;;;5072440;28;20450;-69
2023/04/24 05:54:27;;;;;;;59.00;3.27;;;;;;;;;;5073251;28;20826;-69
2023/04/24 05:56:55;;;;;;;57.67;2.90;;;;;;;;;;5072796;28;20448;-69
2023/04/24 05:59:24;;;;;;;58.83;3.13;;;;;;;;;;5072391;28;20479;-68
2023/04/24 06:01:51;;;;;;;57.97;3.20;;;;;;;;;;5072614;28;20891;-68
2023/04/24 06:04:18;;;;;;;57.47;3.00;;;;;;;;;;5072875;28;20447;-69
2023/04/24 06:06:45;;;;;;;57.57;3.20;;;;;;;;;;5072668;28;20904;-68
2023/04/24 06:09:12;;;;;;;57.47;2.80;;;;;;;;;;5072739;28;20848;-69
2023/04/24 06:11:40;;;;;;;58.87;3.03;;;;;;;;;;5072618;28;20819;-69
2023/04/24 06:14:07;;;;;;;57.70;3.10;;;;;;;;;;5072511;28;20447;-69
2023/04/24 06:16:35;;;;;;;57.80;3.27;;;;;;;;;;5072404;28;20444;-68
2023/04/24 06:19:02;;;;;;;57.73;3.10;;;;;;;;;;5071949;28;20467;-69
2023/04/24 06:21:29;;;;;;;57.70;3.07;;;;;;;;;;5072564;28;20478;-67
2023/04/24 06:23:57;;;;;;;57.90;3.63;;;;;;;;;;5072250;28;20470;-69
2023/04/24 06:26:26;;;;;;;59.60;3.47;;;;;;;;;;5072471;28;20485;-69
2023/04/24 06:28:54;;;;;;;57.73;3.40;;;;;;;;;;5071654;28;20495;-68
2023/04/24 06:31:21;;;;;;;59.40;3.23;;;;;;;;;;5072084;28;20458;-68
2023/04/24 06:33:49;;;;;;;58.10;3.50;;;;;;;;;;5072422;28;20447;-68
2023/04/24 06:36:16;;;;;;;58.97;3.80;;;;;;;;;;5072246;28;20439;-68
2023/04/24 06:38:44;;;;;;;62.50;3.50;;;;;;;;;;5071768;28;20467;-69
2023/04/24 06:41:11;;;;;;;59.70;3.47;;;;;;;;;;5072089;28;20819;-68
2023/04/24 06:43:38;;;;;;;58.10;3.60;;;;;;;;;;5071931;28;20455;-69
2023/04/24 06:46:05;;;;;;;58.33;3.47;;;;;;;;;;5072135;28;20455;-69
2023/04/24 06:48:32;;;;;;;59.00;3.33;;;;;;;;;;5071683;28;20581;-68
2023/04/24 06:51:01;;;;;;;58.20;3.13;;;;;;;;;;5071995;28;20868;-68
2023/04/24 06:53:28;;;;;;;58.73;3.10;;;;;;;;;;5072042;28;20448;-69
2023/04/24 06:55:55;;;;;;;58.50;3.50;;;;;;;;;;5071763;28;20866;-69
2023/04/24 06:58:22;;;;;;;59.17;3.70;;;;;;;;;;5071617;28;20453;-69
2023/04/24 07:00:49;;;;;;;60.60;3.40;;;;;;;;;;5071675;28;20530;-69
2023/04/24 07:03:16;;;;;;;60.07;3.90;;;;;;;;;;5071931;28;20447;-69
2023/04/24 07:05:44;;;;;;;58.80;3.80;;;;;;;;;;5071688;28;20447;-68
2023/04/24 07:08:12;;;;;;;61.20;3.47;;;;;;;;;;5071618;28;20479;-69
2023/04/24 07:10:40;;;;;;;58.67;3.60;;;;;;;;;;5071281;28;20474;-69
2023/04/24 07:13:08;;;;;;;57.80;3.23;;;;;;;;;;5071865;28;20458;-68
2023/04/24 07:15:35;;;;;;;57.70;3.17;;;;;;;;;;5071810;28;20451;-68
2023/04/24 07:18:02;;;;;;;59.03;3.77;;;;;;;;;;5071666;28;20794;-69
2023/04/24 07:20:29;;;;;;;57.90;3.23;;;;;;;;;;5071330;28;20468;-69
2023/04/24 07:22:56;;;;;;;57.80;3.10;;;;;;;;;;5071678;28;20497;-69
2023/04/24 07:25:25;;;;;;;61.00;3.87;;;;;;;;;;5071609;28;20454;-68
2023/04/24 07:27:52;;;;;;;57.77;3.43;;;;;;;;;;5071653;28;20859;-69
2023/04/24 07:30:19;;;;;;;58.27;3.30;;;;;;;;;;5071238;28;20467;-68
2023/04/24 07:32:46;;;;;;;57.90;3.33;;;;;;;;;;5071469;28;20448;-68
2023/04/24 07:35:13;;;;;;;58.07;3.50;;;;;;;;;;5071503;28;20443;-68
2023/04/24 07:37:45;;;;;;;58.47;3.63;;;;;;;;;;5071826;28;20459;-69
2023/04/24 07:40:12;;;;;;;59.40;3.70;;;;;;;;;;5071404;28;20528;-69
2023/04/24 07:42:41;;;;;;;58.37;3.83;;;;;;;;;;5071316;28;20454;-68
2023/04/24 07:45:08;;;;;;;58.00;3.27;;;;;;;;;;5071274;28;20944;-68
2023/04/24 07:47:36;;;;;;;57.70;3.13;;;;;;;;;;5071156;28;21034;-68
2023/04/24 07:50:04;;;;;;;58.40;3.27;;;;;;;;;;5070926;28;20478;-69
2023/04/24 07:52:31;;;;;;;59.57;3.07;;;;;;;;;;5071215;28;20932;-68
2023/04/24 07:55:00;;;;;;;57.90;3.20;;;;;;;;;;5071230;28;20959;-68
2023/04/24 07:57:27;;;;;;;58.77;3.00;;;;;;;;;;5071411;28;20544;-69
2023/04/24 07:59:56;;;;;;;57.80;3.20;;;;;;;;;;5070779;28;20479;-68
2023/04/24 08:02:26;;;;;;;58.07;3.60;;;;;;;;;;5071155;28;20505;-69
2023/04/24 08:04:53;;;;;;;58.87;3.50;;;;;;;;;;5071115;28;20513;-69
2023/04/24 08:07:20;;;;;;;58.47;3.47;;;;;;;;;;5071415;28;20451;-68
2023/04/24 08:09:48;;;;;;;59.60;3.27;;;;;;;;;;5070675;28;20988;-69
2023/04/24 08:12:15;;;;;;;61.33;3.50;;;;;;;;;;5071356;28;20461;-68
2023/04/24 08:14:42;;;;;;;58.20;3.20;;;;;;;;;;5071934;28;20952;-69
2023/04/24 08:17:10;;;;;;;61.90;3.37;;;;;;;;;;5074679;28;20544;-68
2023/04/24 08:19:37;;;;;;;58.57;3.33;;;;;;;;;;5074140;28;20474;-69
2023/04/24 08:22:05;;;;;;;57.90;3.10;;;;;;;;;;5073386;28;20443;-68
2023/04/24 08:24:32;;;;;;;57.80;3.17;;;;;;;;;;5073553;28;20491;-68
2023/04/24 08:26:59;;;;;;;61.30;3.20;;;;;;;;;;5074634;28;20443;-68
2023/04/24 08:29:26;;;;;;;58.60;3.10;;;;;;;;;;5074005;28;21007;-68
2023/04/24 08:31:55;;;;;;;57.57;3.00;;;;;;;;;;5074353;28;20451;-68
2023/04/24 08:34:23;;;;;;;58.47;3.13;;;;;;;;;;5074547;28;20500;-68
2023/04/24 08:36:50;;;;;;;59.43;3.20;;;;;;;;;;5074512;28;20448;-69
2023/04/24 08:39:18;;;;;;;57.93;3.13;;;;;;;;;;5073958;28;20972;-67
2023/04/24 08:41:46;;;;;;;58.40;3.33;;;;;;;;;;5074285;28;20462;-68
2023/04/24 08:44:15;;;;;;;58.57;3.33;;;;;;;;;;5074229;28;20473;-68
2023/04/24 08:46:45;;;;;;;58.70;3.30;;;;;;;;;;5074127;28;20752;-69
2023/04/24 08:49:12;;;;;;;58.57;2.80;;;;;;;;;;5073803;28;20887;-68
2023/04/24 08:51:41;;;;;;;58.60;3.13;;;;;;;;;;5074187;28;20970;-68
2023/04/24 08:54:08;;;;;;;58.97;3.20;;;;;;;;;;5073903;28;20456;-68
2023/04/24 08:56:37;;;;;;;57.80;3.00;;;;;;;;;;5073896;28;20444;-67
2023/04/24 08:59:05;;;;;;;58.20;3.00;;;;;;;;;;5073515;28;20468;-68
2023/04/24 09:01:33;;;;;;;57.90;3.57;;;;;;;;;;5074079;28;20451;-68
2023/04/24 09:04:01;;;;;;;58.03;2.83;;;;;;;;;;5073923;28;20505;-68
2023/04/24 09:06:30;;;;;;;57.53;2.90;;;;;;;;;;5074007;28;20466;-68
2023/04/24 09:08:58;;;;;;;58.00;3.23;;;;;;;;;;5073310;28;20848;-68
2023/04/24 09:11:26;;;;;;;57.97;3.10;;;;;;;;;;5074123;28;20447;-69
2023/04/24 09:13:53;;;;;;;57.90;3.40;;;;;;;;;;5073925;28;20474;-68
2023/04/24 09:16:23;;;;;;;57.77;3.20;;;;;;;;;;5073910;28;20455;-68
2023/04/24 09:18:50;;;;;;;58.93;2.63;;;;;;;;;;5073262;28;20467;-68
2023/04/24 09:21:17;;;;;;;58.30;3.40;;;;;;;;;;5073587;28;20458;-68
2023/04/24 09:23:44;;;;;;;57.57;3.20;;;;;;;;;;5073504;28;20463;-68
2023/04/24 09:26:14;;;;;;;57.40;3.00;;;;;;;;;;5072321;28;20530;-69
2023/04/24 09:28:41;;;;;;;58.10;2.80;;;;;;;;;;5072763;28;20487;-68
2023/04/24 09:31:09;;;;;;;60.27;3.00;;;;;;;;;;5073716;28;20809;-68
2023/04/24 09:33:37;;;;;;;58.37;3.03;;;;;;;;;;5073375;28;20447;-68
2023/04/24 09:36:05;;;;;;;58.00;3.10;;;;;;;;;;5073032;28;20443;-68
2023/04/24 09:38:33;;;;;;;58.07;2.90;;;;;;;;;;5072664;28;20516;-68
2023/04/24 09:41:01;;;;;;;57.50;3.10;;;;;;;;;;5073038;28;20460;-68
2023/04/24 09:43:30;;;;;;;58.87;3.00;;;;;;;;;;5073243;28;20832;-68
2023/04/24 09:45:58;;;;;;;57.90;3.40;;;;;;;;;;5072982;28;20446;-67
2023/04/24 09:48:32;;;;;;;57.87;3.23;;;;;;;;;;5072632;28;20581;-68
2023/04/24 09:51:01;;;;;;;57.60;2.90;;;;;;;;;;5072842;28;20451;-68
2023/04/24 09:53:29;;;;;;;60.20;3.97;;;;;;;;;;5073104;28;20530;-68
2023/04/24 09:55:56;;;;;;;59.17;3.17;;;;;;;;;;5073027;28;20863;-69
2023/04/24 09:58:27;;;;;;;58.53;3.47;;;;;;;;;;5072681;28;20447;-68
2023/04/24 10:00:56;;;;;;;58.40;2.87;;;;;;;;;;5072637;28;20470;-69
2023/04/24 10:03:26;;;;;;;57.70;3.30;;;;;;;;;;5072591;28;20449;-68
2023/04/24 10:05:55;;;;;;;58.93;3.27;;;;;;;;;;5072765;28;20448;-68
2023/04/24 10:08:22;;;;;;;57.77;3.07;;;;;;;;;;5072548;28;20478;-67
2023/04/24 10:10:49;;;;;;;58.07;3.33;;;;;;;;;;5072411;28;20451;-69
2023/04/24 10:13:17;;;;;;;57.50;2.80;;;;;;;;;;5072577;28;20543;-68
2023/04/24 10:15:44;;;;;;;58.10;3.03;;;;;;;;;;5072876;28;20455;-68
2023/04/24 10:18:13;;;;;;;57.73;3.20;;;;;;;;;;5072225;28;20534;-68
2023/04/24 10:20:41;;;;;;;57.43;2.90;;;;;;;;;;5071996;28;21017;-68
2023/04/24 10:23:08;;;;;;;57.40;2.87;;;;;;;;;;5072418;28;20500;-68
2023/04/24 10:25:36;;;;;;;58.27;2.77;;;;;;;;;;5072314;28;20458;-69
2023/04/24 10:28:04;;;;;;;57.97;2.87;;;;;;;;;;5072280;28;20533;-69
2023/04/24 10:30:34;;;;;;;57.57;2.63;;;;;;;;;;5071977;28;20556;-69
2023/04/24 10:33:02;;;;;;;57.40;2.70;;;;;;;;;;5072385;28;20455;-69
2023/04/24 10:35:31;;;;;;;57.53;2.80;;;;;;;;;;5072102;28;20447;-69
2023/04/24 10:38:00;;;;;;;57.87;2.87;;;;;;;;;;5071859;28;20447;-69
2023/04/24 10:40:28;;;;;;;58.83;3.00;;;;;;;;;;5071829;28;20887;-69
2023/04/24 10:42:57;;;;;;;57.70;3.13;;;;;;;;;;5071962;28;20513;-69
2023/04/24 10:45:25;;;;;;;58.03;3.20;;;;;;;;;;5072214;28;20804;-68
2023/04/24 10:47:58;;;;;;;58.77;3.13;;;;;;;;;;5071896;28;20538;-68
2023/04/24 10:50:25;;;;;;;59.90;2.80;;;;;;;;;;5071594;28;20487;-68
2023/04/24 10:52:55;;;;;;;57.90;3.30;;;;;;;;;;5072014;28;20454;-69
2023/04/24 10:55:41;;;;;;;59.50;3.80;;;;;;;;;;5072448;28;20479;-68
2023/04/24 10:58:08;;;;;;;59.30;3.37;;;;;;;;;;5072037;28;20447;-68
2023/04/24 11:00:37;;;;;;;58.43;3.40;;;;;;;;;;5071598;28;20463;-69
2023/04/24 11:03:06;;;;;;;57.60;3.10;;;;;;;;;;5071852;28;20817;-68
2023/04/24 11:05:53;;;;;;;57.90;3.10;;;;;;;;;;5071886;28;20454;-68
2023/04/24 11:08:25;;;;;;;59.77;2.97;;;;;;;;;;5071479;28;20489;-67
2023/04/24 11:10:56;;;;;;;57.53;2.77;;;;;;;;;;5071968;28;20504;-68
2023/04/24 11:13:25;;;;;;;59.87;2.83;;;;;;;;;;5071911;28;20459;-68
2023/04/24 11:16:07;;;;;;;58.77;3.70;;;;;;;;;;5072223;28;20451;-68
2023/04/24 11:18:39;;;;;;;58.10;2.93;;;;;;;;;;5071117;28;21006;-68
2023/04/24 11:21:11;;;;;;;58.07;3.20;;;;;;;;;;5071432;28;20498;-68
2023/04/24 11:23:40;;;;;;;58.60;2.57;;;;;;;;;;5071407;28;20455;-68
2023/04/24 11:26:14;;;;;;;58.50;2.60;;;;;;;;;;5071140;28;20542;-68
2023/04/24 11:28:46;;;;;;;58.23;3.00;;;;;;;;;;5070829;28;20475;-69
2023/04/24 11:31:31;;;;;;;61.10;3.23;;;;;;;;;;5071448;28;20439;-69
2023/04/24 11:33:58;;;;;;;57.50;2.90;;;;;;;;;;5071506;28;20449;-70
2023/04/24 11:36:26;;;;;;;61.10;3.00;;;;;;;;;;5072067;28;20459;-69
2023/04/24 11:38:54;;;;;;;57.60;2.87;;;;;;;;;;5071121;28;20811;-70
2023/04/24 11:41:21;;;;;;;58.10;2.90;;;;;;;;;;5071397;28;20455;-70
2023/04/24 11:43:49;;;;;;;57.33;2.70;;;;;;;;;;5071594;28;20443;-69
2023/04/24 11:46:18;;;;;;;57.60;2.90;;;;;;;;;;5071538;28;20443;-69
2023/04/24 11:48:46;;;;;;;58.60;3.60;;;;;;;;;;5071122;28;20493;-69
2023/04/24 11:51:13;;;;;;;58.20;3.47;;;;;;;;;;5074972;28;20932;-69
2023/04/24 11:53:40;;;;;;;57.67;2.73;;;;;;;;;;5075269;28;20447;-70
2023/04/24 11:56:10;;;;;;;58.00;3.20;;;;;;;;;;5075067;28;20443;-70
2023/04/24 11:58:37;;;;;;;58.70;3.20;;;;;;;;;;5074936;28;20451;-69
2023/04/24 12:01:05;;;;;;;58.87;3.67;;;;;;;;;;5075136;28;20447;-70
2023/04/24 12:03:32;;;;;;;58.97;3.10;;;;;;;;;;5075140;28;20447;-69
2023/04/24 12:06:08;;;;;;;58.97;3.07;;;;;;;;;;5075001;28;20449;-70
2023/04/24 12:08:36;;;;;;;58.00;3.03;;;;;;;;;;5074314;28;20447;-69
2023/04/24 12:11:03;;;;;;;58.70;3.17;;;;;;;;;;5075091;28;20951;-69
2023/04/24 12:13:32;;;;;;;57.97;3.20;;;;;;;;;;5075021;28;20486;-69
2023/04/24 12:15:59;;;;;;;58.20;3.10;;;;;;;;;;5074659;28;20490;-69
2023/04/24 12:18:27;;;;;;;57.33;2.63;;;;;;;;;;5074620;28;20447;-69
2023/04/24 12:20:54;;;;;;;58.27;3.10;;;;;;;;;;5074708;28;20443;-69
2023/04/24 12:23:35;;;;;;;57.97;3.20;;;;;;;;;;5074522;28;20471;-69
2023/04/24 12:26:02;;;;;;;57.67;3.00;;;;;;;;;;5074564;28;20482;-70
2023/04/24 12:28:37;;;;;;;58.27;3.23;;;;;;;;;;5074169;28;20947;-69
2023/04/24 12:31:04;;;;;;;57.40;3.13;;;;;;;;;;5074745;28;20442;-69
2023/04/24 12:33:34;;;;;;;59.30;3.53;;;;;;;;;;5074383;28;20439;-68
2023/04/24 12:36:01;;;;;;;57.70;3.00;;;;;;;;;;5074805;28;20439;-68
2023/04/24 12:38:30;;;;;;;58.90;3.17;;;;;;;;;;5074299;28;20443;-69
2023/04/24 12:41:04;;;;;;;57.80;2.93;;;;;;;;;;5074356;28;20448;-69
2023/04/24 12:43:31;;;;;;;57.87;2.70;;;;;;;;;;5074356;28;20530;-70
2023/04/24 12:45:59;;;;;;;58.40;3.13;;;;;;;;;;5074148;28;20443;-69
2023/04/24 12:48:27;;;;;;;57.70;3.10;;;;;;;;;;5073940;28;20943;-70
2023/04/24 12:50:55;;;;;;;57.87;2.83;;;;;;;;;;5074039;28;20509;-69
2023/04/24 12:53:22;;;;;;;58.50;2.90;;;;;;;;;;5074035;28;20447;-69
2023/04/24 12:55:52;;;;;;;58.10;3.10;;;;;;;;;;5072625;28;20450;-69
2023/04/24 12:58:20;;;;;;;58.07;2.93;;;;;;;;;;5073629;28;20448;-70
2023/04/24 13:00:48;;;;;;;58.43;3.17;;;;;;;;;;5072885;28;20497;-69
2023/04/24 13:03:16;;;;;;;58.67;3.30;;;;;;;;;;5073600;28;20447;-69
2023/04/24 13:05:43;;;;;;;57.77;3.07;;;;;;;;;;5073617;28;20454;-70
2023/04/24 13:08:12;;;;;;;58.17;3.00;;;;;;;;;;5073282;28;20534;-70
2023/04/24 13:10:40;;;;;;;58.67;3.40;;;;;;;;;;5073433;28;20853;-70
2023/04/24 13:13:08;;;;;;;60.83;3.30;;;;;;;;;;5073638;28;20463;-69
2023/04/24 13:15:35;;;;;;;59.10;3.13;;;;;;;;;;5074140;28;20458;-69
2023/04/24 13:18:02;;;;;;;57.37;2.80;;;;;;;;;;5073509;28;20512;-70
2023/04/24 13:20:30;;;;;;;57.77;3.00;;;;;;;;;;5073517;28;20459;-69
2023/04/24 13:22:57;;;;;;;57.90;2.97;;;;;;;;;;5073595;28;20450;-70
2023/04/24 13:25:25;;;;;;;57.77;2.90;;;;;;;;;;5073568;28;20451;-69
2023/04/24 13:27:52;;;;;;;57.50;2.87;;;;;;;;;;5073508;28;20828;-70
2023/04/24 13:30:19;;;;;;;57.80;2.80;;;;;;;;;;5073203;28;20491;-69
2023/04/24 13:32:46;;;;;;;57.57;3.10;;;;;;;;;;5073299;28;20447;-70
2023/04/24 13:35:13;;;;;;;59.20;3.27;;;;;;;;;;5073507;28;20447;-70
2023/04/24 13:37:42;;;;;;;58.07;3.10;;;;;;;;;;5073232;28;20447;-70
2023/04/24 13:40:09;;;;;;;58.80;3.40;;;;;;;;;;5072746;28;20667;-70
2023/04/24 13:42:36;;;;;;;58.00;3.57;;;;;;;;;;5073381;28;20486;-70
2023/04/24 13:45:04;;;;;;;57.97;3.43;;;;;;;;;;5073303;28;20444;-69
2023/04/24 13:47:31;;;;;;;57.93;3.30;;;;;;;;;;5073192;28;20447;-69
2023/04/24 13:49:58;;;;;;;58.47;3.47;;;;;;;;;;5072715;28;20493;-69
2023/04/24 13:52:25;;;;;;;58.40;3.23;;;;;;;;;;5073015;28;20453;-69
2023/04/24 13:54:55;;;;;;;61.67;3.40;;;;;;;;;;5072767;28;20450;-69
2023/04/24 13:57:22;;;;;;;58.50;3.90;;;;;;;;;;5072982;28;20456;-70
2023/04/24 13:59:49;;;;;;;59.90;4.00;;;;;;;;;;5072348;28;20554;-69
2023/04/24 14:02:16;;;;;;;58.07;3.43;;;;;;;;;;5072960;28;20443;-69
2023/04/24 14:04:43;;;;;;;61.93;3.87;;;;;;;;;;5072650;28;20456;-69
2023/04/24 14:07:10;;;;;;;57.70;3.33;;;;;;;;;;5072641;28;20465;-70
2023/04/24 14:09:37;;;;;;;66.07;3.47;;;;;;;;;;5072357;28;20502;-70
2023/04/24 14:12:06;;;;;;;57.40;2.90;;;;;;;;;;5072286;28;20948;-70
2023/04/24 14:14:34;;;;;;;58.27;3.13;;;;;;;;;;5072631;28;20534;-69
2023/04/24 14:17:01;;;;;;;58.63;3.00;;;;;;;;;;5072636;28;20447;-69
2023/04/24 14:19:28;;;;;;;58.00;2.80;;;;;;;;;;5072137;28;21133;-70
2023/04/24 14:21:57;;;;;;;58.57;3.10;;;;;;;;;;5072313;28;20451;-70
2023/04/24 14:24:24;;;;;;;57.80;3.13;;;;;;;;;;5072406;28;20495;-70
2023/04/24 14:26:51;;;;;;;57.80;2.73;;;;;;;;;;5072430;28;20443;-70
2023/04/24 14:29:20;;;;;;;60.73;3.00;;;;;;;;;;5071912;28;20467;-70
2023/04/24 14:31:47;;;;;;;58.10;3.37;;;;;;;;;;5072352;28;20444;-70
2023/04/24 14:34:15;;;;;;;57.67;3.50;;;;;;;;;;5072191;28;20740;-70